sensor_id;sensor_type;location;lat;lon;timestamp;P1;durP1;ratioP1;P2;durP2;ratioP2
64936;SDS011;51452;47.698;19.050;2023-02-08T00:01:26;7.63;;;4.20;;
64936;SDS011;51452;47.698;19.050;2023-02-08T00:03:52;9.87;;;4.10;;
64936;SDS011;51452;47.698;19.050;2023-02-08T00:06:17;12.07;;;5.30;;
64936;SDS011;51452;47.698;19.050;2023-02-08T00:08:43;11.73;;;4.70;;
64936;SDS011;51452;47.698;19.050;2023-02-08T00:11:09;10.53;;;4.77;;
64936;SDS011;51452;47.698;19.050;2023-02-08T00:13:35;12.87;;;5.07;;
64936;SDS011;51452;47.698;19.050;2023-02-08T00:16:01;10.20;;;4.77;;
64936;SDS011;51452;47.698;19.050;2023-02-08T00:18:27;12.03;;;6.03;;
64936;SDS011;51452;47.698;19.050;2023-02-08T00:20:52;13.33;;;5.30;;
64936;SDS011;51452;47.698;19.050;2023-02-08T00:23:19;11.73;;;5.57;;
64936;SDS011;51452;47.698;19.050;2023-02-08T00:25:45;9.33;;;5.03;;
64936;SDS011;51452;47.698;19.050;2023-02-08T00:28:11;10.93;;;4.93;;
64936;SDS011;51452;47.698;19.050;2023-02-08T00:30:39;10.67;;;5.00;;
64936;SDS011;51452;47.698;19.050;2023-02-08T00:33:05;9.57;;;4.77;;
64936;SDS011;51452;47.698;19.050;2023-02-08T00:35:30;8.53;;;4.67;;
64936;SDS011;51452;47.698;19.050;2023-02-08T00:37:56;10.00;;;4.57;;
64936;SDS011;51452;47.698;19.050;2023-02-08T00:40:21;10.10;;;5.30;;
64936;SDS011;51452;47.698;19.050;2023-02-08T00:42:47;13.87;;;5.30;;
64936;SDS011;51452;47.698;19.050;2023-02-08T00:45:13;12.23;;;5.80;;
64936;SDS011;51452;47.698;19.050;2023-02-08T00:47:38;10.97;;;5.57;;
64936;SDS011;51452;47.698;19.050;2023-02-08T00:50:04;12.73;;;5.03;;
64936;SDS011;51452;47.698;19.050;2023-02-08T00:52:29;8.37;;;4.67;;
64936;SDS011;51452;47.698;19.050;2023-02-08T00:54:55;9.73;;;4.73;;
64936;SDS011;51452;47.698;19.050;2023-02-08T00:57:20;9.67;;;4.53;;
64936;SDS011;51452;47.698;19.050;2023-02-08T00:59:46;10.90;;;5.03;;
64936;SDS011;51452;47.698;19.050;2023-02-08T01:02:11;11.57;;;5.00;;
64936;SDS011;51452;47.698;19.050;2023-02-08T01:04:37;12.23;;;4.90;;
64936;SDS011;51452;47.698;19.050;2023-02-08T01:07:03;10.80;;;4.70;;
64936;SDS011;51452;47.698;19.050;2023-02-08T01:09:29;12.03;;;5.43;;
64936;SDS011;51452;47.698;19.050;2023-02-08T01:11:55;10.17;;;4.77;;
64936;SDS011;51452;47.698;19.050;2023-02-08T01:14:20;10.87;;;4.47;;
64936;SDS011;51452;47.698;19.050;2023-02-08T01:16:46;10.17;;;5.13;;
64936;SDS011;51452;47.698;19.050;2023-02-08T01:19:11;14.40;;;5.30;;
64936;SDS011;51452;47.698;19.050;2023-02-08T01:21:38;10.73;;;4.90;;
64936;SDS011;51452;47.698;19.050;2023-02-08T01:24:04;11.30;;;5.00;;
64936;SDS011;51452;47.698;19.050;2023-02-08T01:26:30;11.43;;;5.00;;
64936;SDS011;51452;47.698;19.050;2023-02-08T01:28:56;9.70;;;4.67;;
64936;SDS011;51452;47.698;19.050;2023-02-08T01:31:27;8.87;;;4.17;;
64936;SDS011;51452;47.698;19.050;2023-02-08T01:33:55;10.07;;;5.07;;
64936;SDS011;51452;47.698;19.050;2023-02-08T01:36:21;10.33;;;4.40;;
64936;SDS011;51452;47.698;19.050;2023-02-08T01:38:47;10.33;;;5.23;;
64936;SDS011;51452;47.698;19.050;2023-02-08T01:41:14;12.60;;;6.20;;
64936;SDS011;51452;47.698;19.050;2023-02-08T01:46:44;11.57;;;6.10;;
64936;SDS011;51452;47.698;19.050;2023-02-08T01:49:16;11.60;;;5.35;;
64936;SDS011;51452;47.698;19.050;2023-02-08T01:52:04;9.90;;;4.80;;
64936;SDS011;51452;47.698;19.050;2023-02-08T01:54:34;10.53;;;5.03;;
64936;SDS011;51452;47.698;19.050;2023-02-08T01:57:04;10.97;;;5.40;;
64936;SDS011;51452;47.698;19.050;2023-02-08T01:59:41;11.20;;;5.13;;
64936;SDS011;51452;47.698;19.050;2023-02-08T02:04:43;11.20;;;4.90;;
64936;SDS011;51452;47.698;19.050;2023-02-08T02:07:08;11.13;;;4.37;;
64936;SDS011;51452;47.698;19.050;2023-02-08T02:09:43;9.00;;;4.30;;
64936;SDS011;51452;47.698;19.050;2023-02-08T02:12:13;10.50;;;4.70;;
64936;SDS011;51452;47.698;19.050;2023-02-08T02:14:40;10.43;;;4.17;;
64936;SDS011;51452;47.698;19.050;2023-02-08T02:17:06;9.67;;;4.63;;
64936;SDS011;51452;47.698;19.050;2023-02-08T02:19:36;9.37;;;4.10;;
64936;SDS011;51452;47.698;19.050;2023-02-08T02:33:12;8.20;;;3.43;;
64936;SDS011;51452;47.698;19.050;2023-02-08T02:44:21;10.40;;;4.33;;
64936;SDS011;51452;47.698;19.050;2023-02-08T02:49:46;9.93;;;4.63;;
64936;SDS011;51452;47.698;19.050;2023-02-08T02:52:16;10.53;;;4.30;;
64936;SDS011;51452;47.698;19.050;2023-02-08T02:54:51;11.10;;;4.73;;
64936;SDS011;51452;47.698;19.050;2023-02-08T02:57:23;6.37;;;3.17;;
64936;SDS011;51452;47.698;19.050;2023-02-08T02:59:52;8.00;;;3.70;;
64936;SDS011;51452;47.698;19.050;2023-02-08T03:02:18;10.57;;;4.40;;
64936;SDS011;51452;47.698;19.050;2023-02-08T03:07:19;8.83;;;4.13;;
64936;SDS011;51452;47.698;19.050;2023-02-08T03:23:29;8.70;;;4.13;;
64936;SDS011;51452;47.698;19.050;2023-02-08T03:31:59;7.97;;;4.00;;
64936;SDS011;51452;47.698;19.050;2023-02-08T03:34:32;7.93;;;3.57;;
64936;SDS011;51452;47.698;19.050;2023-02-08T03:39:47;11.90;;;4.07;;
64936;SDS011;51452;47.698;19.050;2023-02-08T03:42:17;10.00;;;4.30;;
64936;SDS011;51452;47.698;19.050;2023-02-08T03:44:47;7.50;;;3.70;;
64936;SDS011;51452;47.698;19.050;2023-02-08T03:47:21;9.00;;;4.00;;
64936;SDS011;51452;47.698;19.050;2023-02-08T03:49:52;10.73;;;3.93;;
64936;SDS011;51452;47.698;19.050;2023-02-08T03:52:20;6.17;;;3.37;;
64936;SDS011;51452;47.698;19.050;2023-02-08T03:54:48;10.37;;;4.50;;
64936;SDS011;51452;47.698;19.050;2023-02-08T03:57:21;7.90;;;3.77;;
64936;SDS011;51452;47.698;19.050;2023-02-08T03:59:57;8.47;;;3.67;;
64936;SDS011;51452;47.698;19.050;2023-02-08T04:02:27;8.07;;;3.97;;
64936;SDS011;51452;47.698;19.050;2023-02-08T04:04:55;8.17;;;4.37;;
64936;SDS011;51452;47.698;19.050;2023-02-08T04:07:22;8.97;;;4.13;;
64936;SDS011;51452;47.698;19.050;2023-02-08T04:09:48;7.50;;;3.60;;
64936;SDS011;51452;47.698;19.050;2023-02-08T04:12:13;7.53;;;3.63;;
64936;SDS011;51452;47.698;19.050;2023-02-08T04:14:39;10.17;;;4.03;;
64936;SDS011;51452;47.698;19.050;2023-02-08T04:17:04;8.60;;;4.10;;
64936;SDS011;51452;47.698;19.050;2023-02-08T04:19:30;7.47;;;3.43;;
64936;SDS011;51452;47.698;19.050;2023-02-08T04:21:56;9.50;;;4.07;;
64936;SDS011;51452;47.698;19.050;2023-02-08T04:24:21;8.07;;;3.97;;
64936;SDS011;51452;47.698;19.050;2023-02-08T04:26:46;7.80;;;3.53;;
64936;SDS011;51452;47.698;19.050;2023-02-08T04:29:12;8.80;;;3.90;;
64936;SDS011;51452;47.698;19.050;2023-02-08T04:31:37;6.87;;;3.77;;
64936;SDS011;51452;47.698;19.050;2023-02-08T04:34:03;7.00;;;3.40;;
64936;SDS011;51452;47.698;19.050;2023-02-08T04:36:28;7.10;;;3.57;;
64936;SDS011;51452;47.698;19.050;2023-02-08T04:38:53;9.57;;;3.90;;
64936;SDS011;51452;47.698;19.050;2023-02-08T04:41:19;8.70;;;4.10;;
64936;SDS011;51452;47.698;19.050;2023-02-08T04:43:44;7.03;;;3.63;;
64936;SDS011;51452;47.698;19.050;2023-02-08T04:46:10;9.47;;;3.97;;
64936;SDS011;51452;47.698;19.050;2023-02-08T04:48:35;8.03;;;3.83;;
64936;SDS011;51452;47.698;19.050;2023-02-08T04:51:01;8.90;;;3.53;;
64936;SDS011;51452;47.698;19.050;2023-02-08T04:53:26;9.67;;;3.47;;
64936;SDS011;51452;47.698;19.050;2023-02-08T04:55:52;7.90;;;3.70;;
64936;SDS011;51452;47.698;19.050;2023-02-08T04:58:17;8.27;;;4.00;;
64936;SDS011;51452;47.698;19.050;2023-02-08T05:00:43;8.60;;;3.27;;
64936;SDS011;51452;47.698;19.050;2023-02-08T05:03:09;7.93;;;4.00;;
64936;SDS011;51452;47.698;19.050;2023-02-08T05:05:34;8.77;;;3.77;;
64936;SDS011;51452;47.698;19.050;2023-02-08T05:08:00;9.70;;;3.97;;
64936;SDS011;51452;47.698;19.050;2023-02-08T05:10:25;7.70;;;3.70;;
64936;SDS011;51452;47.698;19.050;2023-02-08T05:12:51;9.23;;;4.00;;
64936;SDS011;51452;47.698;19.050;2023-02-08T05:15:17;9.40;;;3.73;;
64936;SDS011;51452;47.698;19.050;2023-02-08T05:17:42;8.73;;;4.23;;
64936;SDS011;51452;47.698;19.050;2023-02-08T05:20:08;6.83;;;4.00;;
64936;SDS011;51452;47.698;19.050;2023-02-08T05:22:34;7.97;;;3.80;;
64936;SDS011;51452;47.698;19.050;2023-02-08T05:24:59;7.47;;;3.90;;
64936;SDS011;51452;47.698;19.050;2023-02-08T05:27:25;11.73;;;5.33;;
64936;SDS011;51452;47.698;19.050;2023-02-08T05:29:51;9.27;;;4.03;;
64936;SDS011;51452;47.698;19.050;2023-02-08T05:32:16;7.93;;;3.77;;
64936;SDS011;51452;47.698;19.050;2023-02-08T05:34:41;9.00;;;4.17;;
64936;SDS011;51452;47.698;19.050;2023-02-08T05:37:07;10.30;;;3.80;;
64936;SDS011;51452;47.698;19.050;2023-02-08T05:39:32;8.93;;;4.20;;
64936;SDS011;51452;47.698;19.050;2023-02-08T05:41:58;7.63;;;3.30;;
64936;SDS011;51452;47.698;19.050;2023-02-08T05:44:23;9.47;;;3.70;;
64936;SDS011;51452;47.698;19.050;2023-02-08T05:46:49;9.23;;;4.27;;
64936;SDS011;51452;47.698;19.050;2023-02-08T05:49:14;7.60;;;4.07;;
64936;SDS011;51452;47.698;19.050;2023-02-08T05:51:40;12.30;;;4.43;;
64936;SDS011;51452;47.698;19.050;2023-02-08T05:54:05;10.80;;;4.20;;
64936;SDS011;51452;47.698;19.050;2023-02-08T05:56:31;11.23;;;4.57;;
64936;SDS011;51452;47.698;19.050;2023-02-08T05:58:59;11.03;;;4.17;;
64936;SDS011;51452;47.698;19.050;2023-02-08T06:01:25;8.93;;;4.37;;
64936;SDS011;51452;47.698;19.050;2023-02-08T06:03:51;10.10;;;4.60;;
64936;SDS011;51452;47.698;19.050;2023-02-08T06:06:16;10.53;;;4.70;;
64936;SDS011;51452;47.698;19.050;2023-02-08T06:08:42;7.40;;;3.83;;
64936;SDS011;51452;47.698;19.050;2023-02-08T06:11:07;8.50;;;4.33;;
64936;SDS011;51452;47.698;19.050;2023-02-08T06:13:33;9.20;;;3.97;;
64936;SDS011;51452;47.698;19.050;2023-02-08T06:15:58;11.90;;;4.80;;
64936;SDS011;51452;47.698;19.050;2023-02-08T06:18:24;15.37;;;4.47;;
64936;SDS011;51452;47.698;19.050;2023-02-08T06:20:53;9.77;;;3.93;;
64936;SDS011;51452;47.698;19.050;2023-02-08T06:23:18;11.17;;;4.43;;
64936;SDS011;51452;47.698;19.050;2023-02-08T06:25:44;9.87;;;4.43;;
64936;SDS011;51452;47.698;19.050;2023-02-08T06:28:10;7.50;;;4.07;;
64936;SDS011;51452;47.698;19.050;2023-02-08T06:30:36;9.30;;;4.27;;
64936;SDS011;51452;47.698;19.050;2023-02-08T06:33:02;8.67;;;4.43;;
64936;SDS011;51452;47.698;19.050;2023-02-08T06:35:28;9.77;;;4.53;;
64936;SDS011;51452;47.698;19.050;2023-02-08T06:37:53;9.80;;;4.43;;
64936;SDS011;51452;47.698;19.050;2023-02-08T06:40:19;12.83;;;5.00;;
64936;SDS011;51452;47.698;19.050;2023-02-08T06:42:45;11.73;;;4.83;;
64936;SDS011;51452;47.698;19.050;2023-02-08T06:45:11;15.07;;;5.03;;
64936;SDS011;51452;47.698;19.050;2023-02-08T06:47:36;10.73;;;4.33;;
64936;SDS011;51452;47.698;19.050;2023-02-08T06:50:02;10.03;;;4.63;;
64936;SDS011;51452;47.698;19.050;2023-02-08T06:52:28;11.10;;;4.37;;
64936;SDS011;51452;47.698;19.050;2023-02-08T06:54:53;10.67;;;4.60;;
64936;SDS011;51452;47.698;19.050;2023-02-08T06:57:18;13.07;;;4.90;;
64936;SDS011;51452;47.698;19.050;2023-02-08T06:59:44;10.43;;;4.40;;
64936;SDS011;51452;47.698;19.050;2023-02-08T07:02:14;13.13;;;4.40;;
64936;SDS011;51452;47.698;19.050;2023-02-08T07:04:41;9.77;;;4.67;;
64936;SDS011;51452;47.698;19.050;2023-02-08T07:07:08;8.23;;;4.30;;
64936;SDS011;51452;47.698;19.050;2023-02-08T07:09:34;9.10;;;4.50;;
64936;SDS011;51452;47.698;19.050;2023-02-08T07:12:00;9.47;;;4.30;;
64936;SDS011;51452;47.698;19.050;2023-02-08T07:14:33;9.87;;;4.57;;
64936;SDS011;51452;47.698;19.050;2023-02-08T07:16:59;12.50;;;4.57;;
64936;SDS011;51452;47.698;19.050;2023-02-08T07:19:26;11.33;;;5.00;;
64936;SDS011;51452;47.698;19.050;2023-02-08T07:21:52;9.80;;;4.97;;
64936;SDS011;51452;47.698;19.050;2023-02-08T07:24:17;10.47;;;4.40;;
64936;SDS011;51452;47.698;19.050;2023-02-08T07:26:43;8.67;;;4.30;;
64936;SDS011;51452;47.698;19.050;2023-02-08T07:29:08;8.63;;;4.20;;
64936;SDS011;51452;47.698;19.050;2023-02-08T07:31:34;9.93;;;4.97;;
64936;SDS011;51452;47.698;19.050;2023-02-08T07:33:59;10.53;;;4.23;;
64936;SDS011;51452;47.698;19.050;2023-02-08T07:36:24;9.70;;;4.83;;
64936;SDS011;51452;47.698;19.050;2023-02-08T07:38:50;10.53;;;5.20;;
64936;SDS011;51452;47.698;19.050;2023-02-08T07:41:15;12.17;;;4.73;;
64936;SDS011;51452;47.698;19.050;2023-02-08T07:43:41;11.73;;;4.50;;
64936;SDS011;51452;47.698;19.050;2023-02-08T07:46:17;13.23;;;4.57;;
64936;SDS011;51452;47.698;19.050;2023-02-08T07:48:44;12.10;;;5.43;;
64936;SDS011;51452;47.698;19.050;2023-02-08T07:51:10;10.27;;;4.13;;
64936;SDS011;51452;47.698;19.050;2023-02-08T07:53:36;9.43;;;4.70;;
64936;SDS011;51452;47.698;19.050;2023-02-08T07:56:02;11.40;;;5.03;;
64936;SDS011;51452;47.698;19.050;2023-02-08T07:58:28;10.13;;;4.80;;
64936;SDS011;51452;47.698;19.050;2023-02-08T08:00:53;13.23;;;5.03;;
64936;SDS011;51452;47.698;19.050;2023-02-08T08:03:19;12.30;;;5.60;;
64936;SDS011;51452;47.698;19.050;2023-02-08T08:05:44;9.83;;;5.13;;
64936;SDS011;51452;47.698;19.050;2023-02-08T08:08:10;13.27;;;4.50;;
64936;SDS011;51452;47.698;19.050;2023-02-08T08:10:36;9.30;;;4.57;;
64936;SDS011;51452;47.698;19.050;2023-02-08T08:13:01;9.70;;;3.87;;
64936;SDS011;51452;47.698;19.050;2023-02-08T08:15:27;10.40;;;4.23;;
64936;SDS011;51452;47.698;19.050;2023-02-08T08:17:53;9.53;;;4.33;;
64936;SDS011;51452;47.698;19.050;2023-02-08T08:20:19;8.40;;;4.53;;
64936;SDS011;51452;47.698;19.050;2023-02-08T08:22:44;12.33;;;4.77;;
64936;SDS011;51452;47.698;19.050;2023-02-08T08:25:10;8.90;;;4.70;;
64936;SDS011;51452;47.698;19.050;2023-02-08T08:27:36;10.23;;;4.57;;
64936;SDS011;51452;47.698;19.050;2023-02-08T08:30:02;11.37;;;4.90;;
64936;SDS011;51452;47.698;19.050;2023-02-08T08:32:30;11.30;;;4.97;;
64936;SDS011;51452;47.698;19.050;2023-02-08T08:34:55;8.97;;;4.43;;
64936;SDS011;51452;47.698;19.050;2023-02-08T08:37:20;10.70;;;4.97;;
64936;SDS011;51452;47.698;19.050;2023-02-08T08:39:46;11.80;;;4.90;;
64936;SDS011;51452;47.698;19.050;2023-02-08T08:42:11;10.80;;;4.60;;
64936;SDS011;51452;47.698;19.050;2023-02-08T08:44:36;9.70;;;4.63;;
64936;SDS011;51452;47.698;19.050;2023-02-08T08:47:02;10.93;;;5.03;;
64936;SDS011;51452;47.698;19.050;2023-02-08T08:49:27;11.20;;;5.17;;
64936;SDS011;51452;47.698;19.050;2023-02-08T08:51:53;8.67;;;4.23;;
64936;SDS011;51452;47.698;19.050;2023-02-08T08:54:20;9.73;;;5.23;;
64936;SDS011;51452;47.698;19.050;2023-02-08T08:56:46;9.53;;;4.93;;
64936;SDS011;51452;47.698;19.050;2023-02-08T08:59:12;12.03;;;5.30;;
64936;SDS011;51452;47.698;19.050;2023-02-08T09:01:37;11.87;;;4.70;;
64936;SDS011;51452;47.698;19.050;2023-02-08T09:04:04;12.53;;;5.33;;
64936;SDS011;51452;47.698;19.050;2023-02-08T09:06:29;11.53;;;5.27;;
64936;SDS011;51452;47.698;19.050;2023-02-08T09:08:55;10.83;;;5.17;;
64936;SDS011;51452;47.698;19.050;2023-02-08T09:11:20;9.37;;;4.97;;
64936;SDS011;51452;47.698;19.050;2023-02-08T09:13:46;10.47;;;5.33;;
64936;SDS011;51452;47.698;19.050;2023-02-08T09:16:17;10.73;;;5.53;;
64936;SDS011;51452;47.698;19.050;2023-02-08T09:18:43;12.93;;;6.40;;
64936;SDS011;51452;47.698;19.050;2023-02-08T09:21:12;14.23;;;6.17;;
64936;SDS011;51452;47.698;19.050;2023-02-08T09:23:40;9.80;;;5.77;;
64936;SDS011;51452;47.698;19.050;2023-02-08T09:26:07;13.63;;;6.23;;
64936;SDS011;51452;47.698;19.050;2023-02-08T09:28:35;11.40;;;5.40;;
64936;SDS011;51452;47.698;19.050;2023-02-08T09:31:20;11.67;;;6.00;;
64936;SDS011;51452;47.698;19.050;2023-02-08T09:33:50;12.77;;;5.77;;
64936;SDS011;51452;47.698;19.050;2023-02-08T09:36:16;13.30;;;5.67;;
64936;SDS011;51452;47.698;19.050;2023-02-08T09:38:42;18.27;;;6.73;;
64936;SDS011;51452;47.698;19.050;2023-02-08T09:41:18;13.50;;;6.53;;
64936;SDS011;51452;47.698;19.050;2023-02-08T09:44:31;13.40;;;6.87;;
64936;SDS011;51452;47.698;19.050;2023-02-08T09:46:38;12.70;;;5.77;;
64936;SDS011;51452;47.698;19.050;2023-02-08T09:49:13;12.73;;;6.60;;
64936;SDS011;51452;47.698;19.050;2023-02-08T09:51:52;13.60;;;6.43;;
64936;SDS011;51452;47.698;19.050;2023-02-08T09:54:29;11.53;;;5.47;;
64936;SDS011;51452;47.698;19.050;2023-02-08T09:56:59;10.23;;;5.27;;
64936;SDS011;51452;47.698;19.050;2023-02-08T09:59:29;10.57;;;4.90;;
64936;SDS011;51452;47.698;19.050;2023-02-08T10:02:01;11.60;;;5.60;;
64936;SDS011;51452;47.698;19.050;2023-02-08T10:05:48;11.10;;;5.23;;
64936;SDS011;51452;47.698;19.050;2023-02-08T10:07:46;12.10;;;5.73;;
64936;SDS011;51452;47.698;19.050;2023-02-08T10:10:15;12.47;;;5.00;;
64936;SDS011;51452;47.698;19.050;2023-02-08T10:12:56;9.20;;;4.73;;
64936;SDS011;51452;47.698;19.050;2023-02-08T10:15:39;9.07;;;4.80;;
64936;SDS011;51452;47.698;19.050;2023-02-08T10:21:19;8.33;;;4.87;;
64936;SDS011;51452;47.698;19.050;2023-02-08T10:39:39;8.60;;;4.20;;
64936;SDS011;51452;47.698;19.050;2023-02-08T10:42:09;11.20;;;4.87;;
64936;SDS011;51452;47.698;19.050;2023-02-08T10:44:50;12.33;;;5.07;;
64936;SDS011;51452;47.698;19.050;2023-02-08T10:53:08;10.93;;;4.90;;
64936;SDS011;51452;47.698;19.050;2023-02-08T10:55:40;9.30;;;4.67;;
64936;SDS011;51452;47.698;19.050;2023-02-08T10:58:09;10.53;;;5.10;;
64936;SDS011;51452;47.698;19.050;2023-02-08T11:00:39;9.90;;;4.73;;
64936;SDS011;51452;47.698;19.050;2023-02-08T11:03:14;9.23;;;4.63;;
64936;SDS011;51452;47.698;19.050;2023-02-08T11:05:48;10.57;;;4.97;;
64936;SDS011;51452;47.698;19.050;2023-02-08T11:08:18;7.13;;;4.50;;
64936;SDS011;51452;47.698;19.050;2023-02-08T11:10:55;9.67;;;4.57;;
64936;SDS011;51452;47.698;19.050;2023-02-08T11:13:23;9.80;;;4.85;;
64936;SDS011;51452;47.698;19.050;2023-02-08T11:15:57;8.93;;;4.80;;
64936;SDS011;51452;47.698;19.050;2023-02-08T11:18:28;10.13;;;4.90;;
64936;SDS011;51452;47.698;19.050;2023-02-08T11:20:58;8.67;;;4.37;;
64936;SDS011;51452;47.698;19.050;2023-02-08T11:23:39;9.23;;;4.00;;
64936;SDS011;51452;47.698;19.050;2023-02-08T11:29:02;11.17;;;5.10;;
64936;SDS011;51452;47.698;19.050;2023-02-08T11:34:32;9.18;;;4.82;;
64936;SDS011;51452;47.698;19.050;2023-02-08T11:39:42;10.17;;;4.77;;
64936;SDS011;51452;47.698;19.050;2023-02-08T11:42:19;9.77;;;4.27;;
64936;SDS011;51452;47.698;19.050;2023-02-08T11:44:47;8.53;;;4.70;;
64936;SDS011;51452;47.698;19.050;2023-02-08T11:47:15;8.07;;;4.33;;
64936;SDS011;51452;47.698;19.050;2023-02-08T11:53:02;11.73;;;4.90;;
64936;SDS011;51452;47.698;19.050;2023-02-08T11:55:31;8.20;;;4.73;;
64936;SDS011;51452;47.698;19.050;2023-02-08T11:58:04;9.13;;;5.07;;
64936;SDS011;51452;47.698;19.050;2023-02-08T12:01:11;9.93;;;5.00;;
64936;SDS011;51452;47.698;19.050;2023-02-08T12:03:43;9.90;;;5.43;;
64936;SDS011;51452;47.698;19.050;2023-02-08T12:09:02;8.52;;;4.55;;
64936;SDS011;51452;47.698;19.050;2023-02-08T12:11:42;7.07;;;4.40;;
64936;SDS011;51452;47.698;19.050;2023-02-08T12:14:31;11.05;;;5.43;;
64936;SDS011;51452;47.698;19.050;2023-02-08T12:40:06;10.43;;;4.57;;
64936;SDS011;51452;47.698;19.050;2023-02-08T12:43:26;9.00;;;4.50;;
64936;SDS011;51452;47.698;19.050;2023-02-08T12:53:53;9.27;;;5.13;;
64936;SDS011;51452;47.698;19.050;2023-02-08T12:56:26;9.07;;;4.63;;
64936;SDS011;51452;47.698;19.050;2023-02-08T12:58:57;9.10;;;4.82;;
64936;SDS011;51452;47.698;19.050;2023-02-08T13:01:28;10.30;;;5.10;;
64936;SDS011;51452;47.698;19.050;2023-02-08T13:04:14;9.93;;;4.30;;
64936;SDS011;51452;47.698;19.050;2023-02-08T13:06:47;9.53;;;5.07;;
64936;SDS011;51452;47.698;19.050;2023-02-08T13:14:44;9.67;;;4.70;;
64936;SDS011;51452;47.698;19.050;2023-02-08T13:17:25;9.27;;;4.80;;
64936;SDS011;51452;47.698;19.050;2023-02-08T13:20:04;9.83;;;4.63;;
64936;SDS011;51452;47.698;19.050;2023-02-08T13:22:40;10.27;;;4.50;;
64936;SDS011;51452;47.698;19.050;2023-02-08T13:25:08;9.43;;;4.80;;
64936;SDS011;51452;47.698;19.050;2023-02-08T13:27:43;8.70;;;5.00;;
64936;SDS011;51452;47.698;19.050;2023-02-08T13:30:15;9.67;;;5.37;;
64936;SDS011;51452;47.698;19.050;2023-02-08T13:32:43;10.30;;;5.70;;
64936;SDS011;51452;47.698;19.050;2023-02-08T13:35:14;10.80;;;5.90;;
64936;SDS011;51452;47.698;19.050;2023-02-08T13:37:41;8.80;;;4.73;;
64936;SDS011;51452;47.698;19.050;2023-02-08T13:40:17;9.73;;;5.20;;
64936;SDS011;51452;47.698;19.050;2023-02-08T13:42:51;10.73;;;5.67;;
64936;SDS011;51452;47.698;19.050;2023-02-08T13:45:24;9.97;;;4.83;;
64936;SDS011;51452;47.698;19.050;2023-02-08T13:47:58;10.27;;;4.73;;
64936;SDS011;51452;47.698;19.050;2023-02-08T13:56:08;12.30;;;4.97;;
64936;SDS011;51452;47.698;19.050;2023-02-08T14:03:43;9.50;;;4.50;;
64936;SDS011;51452;47.698;19.050;2023-02-08T14:06:22;9.97;;;4.43;;
64936;SDS011;51452;47.698;19.050;2023-02-08T14:11:53;11.10;;;5.07;;
64936;SDS011;51452;47.698;19.050;2023-02-08T14:14:36;8.37;;;4.50;;
64936;SDS011;51452;47.698;19.050;2023-02-08T14:19:28;9.87;;;5.00;;
64936;SDS011;51452;47.698;19.050;2023-02-08T14:22:38;9.77;;;5.07;;
64936;SDS011;51452;47.698;19.050;2023-02-08T14:24:48;8.80;;;4.07;;
64936;SDS011;51452;47.698;19.050;2023-02-08T14:28:15;8.10;;;4.60;;
64936;SDS011;51452;47.698;19.050;2023-02-08T14:32:52;9.30;;;4.67;;
64936;SDS011;51452;47.698;19.050;2023-02-08T14:35:56;9.63;;;4.43;;
64936;SDS011;51452;47.698;19.050;2023-02-08T14:47:12;9.77;;;4.80;;
64936;SDS011;51452;47.698;19.050;2023-02-08T14:52:34;10.07;;;4.53;;
64936;SDS011;51452;47.698;19.050;2023-02-08T14:55:03;7.80;;;4.23;;
64936;SDS011;51452;47.698;19.050;2023-02-08T14:57:33;9.97;;;5.20;;
64936;SDS011;51452;47.698;19.050;2023-02-08T15:00:02;8.33;;;4.57;;
64936;SDS011;51452;47.698;19.050;2023-02-08T15:02:30;9.77;;;5.23;;
64936;SDS011;51452;47.698;19.050;2023-02-08T15:04:58;9.50;;;5.00;;
64936;SDS011;51452;47.698;19.050;2023-02-08T15:10:08;9.10;;;4.23;;
64936;SDS011;51452;47.698;19.050;2023-02-08T15:12:37;8.83;;;4.57;;
64936;SDS011;51452;47.698;19.050;2023-02-08T15:15:04;9.27;;;4.40;;
64936;SDS011;51452;47.698;19.050;2023-02-08T15:20:08;10.17;;;5.30;;
64936;SDS011;51452;47.698;19.050;2023-02-08T15:23:23;11.60;;;5.63;;
64936;SDS011;51452;47.698;19.050;2023-02-08T15:25:55;11.13;;;5.23;;
64936;SDS011;51452;47.698;19.050;2023-02-08T15:28:27;12.07;;;4.90;;
64936;SDS011;51452;47.698;19.050;2023-02-08T15:30:56;10.53;;;5.43;;
64936;SDS011;51452;47.698;19.050;2023-02-08T15:33:24;9.03;;;4.67;;
64936;SDS011;51452;47.698;19.050;2023-02-08T15:36:00;10.57;;;5.30;;
64936;SDS011;51452;47.698;19.050;2023-02-08T15:38:29;13.43;;;5.13;;
64936;SDS011;51452;47.698;19.050;2023-02-08T15:41:14;14.17;;;5.50;;
64936;SDS011;51452;47.698;19.050;2023-02-08T15:43:58;10.63;;;5.40;;
64936;SDS011;51452;47.698;19.050;2023-02-08T15:46:25;10.90;;;5.50;;
64936;SDS011;51452;47.698;19.050;2023-02-08T15:48:52;10.30;;;5.33;;
64936;SDS011;51452;47.698;19.050;2023-02-08T15:51:21;15.10;;;5.77;;
64936;SDS011;51452;47.698;19.050;2023-02-08T15:53:49;12.57;;;5.90;;
64936;SDS011;51452;47.698;19.050;2023-02-08T15:56:18;10.70;;;5.33;;
64936;SDS011;51452;47.698;19.050;2023-02-08T15:58:52;14.17;;;6.43;;
64936;SDS011;51452;47.698;19.050;2023-02-08T16:01:20;12.53;;;5.93;;
64936;SDS011;51452;47.698;19.050;2023-02-08T16:03:56;14.30;;;5.93;;
64936;SDS011;51452;47.698;19.050;2023-02-08T16:06:24;10.33;;;5.50;;
64936;SDS011;51452;47.698;19.050;2023-02-08T16:08:53;11.77;;;5.90;;
64936;SDS011;51452;47.698;19.050;2023-02-08T16:11:23;14.27;;;6.53;;
64936;SDS011;51452;47.698;19.050;2023-02-08T16:13:56;14.80;;;6.00;;
64936;SDS011;51452;47.698;19.050;2023-02-08T16:16:25;11.87;;;6.03;;
64936;SDS011;51452;47.698;19.050;2023-02-08T16:19:04;14.10;;;5.67;;
64936;SDS011;51452;47.698;19.050;2023-02-08T16:21:48;13.57;;;6.10;;
64936;SDS011;51452;47.698;19.050;2023-02-08T16:26:41;18.87;;;6.37;;
64936;SDS011;51452;47.698;19.050;2023-02-08T16:29:16;12.33;;;6.33;;
64936;SDS011;51452;47.698;19.050;2023-02-08T16:31:43;16.10;;;6.90;;
64936;SDS011;51452;47.698;19.050;2023-02-08T16:34:15;14.27;;;6.10;;
64936;SDS011;51452;47.698;19.050;2023-02-08T16:36:43;12.70;;;6.07;;
64936;SDS011;51452;47.698;19.050;2023-02-08T16:41:58;15.43;;;6.93;;
64936;SDS011;51452;47.698;19.050;2023-02-08T16:44:30;13.67;;;7.13;;
64936;SDS011;51452;47.698;19.050;2023-02-08T16:46:58;14.00;;;6.40;;
64936;SDS011;51452;47.698;19.050;2023-02-08T16:49:25;15.53;;;6.40;;
64936;SDS011;51452;47.698;19.050;2023-02-08T16:51:59;17.97;;;6.87;;
64936;SDS011;51452;47.698;19.050;2023-02-08T16:54:25;16.20;;;6.68;;
64936;SDS011;51452;47.698;19.050;2023-02-08T16:56:51;14.37;;;6.17;;
64936;SDS011;51452;47.698;19.050;2023-02-08T16:59:24;15.93;;;7.03;;
64936;SDS011;51452;47.698;19.050;2023-02-08T17:01:51;13.07;;;6.83;;
64936;SDS011;51452;47.698;19.050;2023-02-08T17:04:16;15.07;;;7.00;;
64936;SDS011;51452;47.698;19.050;2023-02-08T17:06:42;14.60;;;6.87;;
64936;SDS011;51452;47.698;19.050;2023-02-08T17:09:11;14.90;;;7.10;;
64936;SDS011;51452;47.698;19.050;2023-02-08T17:11:38;13.00;;;7.00;;
64936;SDS011;51452;47.698;19.050;2023-02-08T17:14:04;16.20;;;7.30;;
64936;SDS011;51452;47.698;19.050;2023-02-08T17:16:31;17.63;;;7.50;;
64936;SDS011;51452;47.698;19.050;2023-02-08T17:18:58;17.60;;;7.77;;
64936;SDS011;51452;47.698;19.050;2023-02-08T17:21:24;15.23;;;7.73;;
64936;SDS011;51452;47.698;19.050;2023-02-08T17:23:52;14.70;;;7.50;;
64936;SDS011;51452;47.698;19.050;2023-02-08T17:26:21;17.10;;;7.43;;
64936;SDS011;51452;47.698;19.050;2023-02-08T17:28:52;15.55;;;7.60;;
64936;SDS011;51452;47.698;19.050;2023-02-08T17:31:25;15.53;;;7.20;;